YQM weather

Greater Moncton International Airport
Moncton, New Brunswick, Canada

Public forecast

Using degrees Celsius for public forecast. Weather courtesy of forecast.io.

METAR (pilot weather report)

Retrieved 2019/04/26 05:00 UTC (37 minutes ago):

CYQM 260500Z 27003KT 250V360 15SM OVC003 M01/M01 A3000 RMK SF8 SLP165

TAF (pilot weather forecast)

Forecast is more than 12 hours old.

Retrieved 2019/04/25 00:42 UTC (1 day ago):

TAF CYQM 252338Z 2600/2624 34012KT 2SM -SN OVC007 TEMPO 2600/2603 6SM -SN SCT007 OVC015 FM260300 32005KT P6SM BKN008 OVC015 TEMPO 2603/2606 FEW008 SCT015 FM260600 VRB03KT P6SM FEW008 SCT012 FM261800 16005KT P6SM SCT040 SCT180 FM262000 16008KT P6SM SCT040 OVC120 BECMG 2622/2624 12008KT RMK NXT FCST BY 260600Z